Time;durP1;ratioP1;P1;durP2;ratioP2;P2;SDS_P1;SDS_P2;PMS_P1;PMS_P2;Temp;Humidity;BMP_temperature;BMP_pressure;BME280_temperature;BME280_humidity;BME280_pressure;Samples;Min_cycle;Max_cycle;Signal;HPM_P1;HPM_P2
2021/07/13 00:00:16;;;;;;;12.53;9.35;;;;;;;19.50;74.02;97511.16;1754323;82;20985;-78
2021/07/13 00:02:44;;;;;;;12.25;9.28;;;;;;;19.44;74.74;97509.41;1678930;85;21014;-78
2021/07/13 00:05:15;;;;;;;10.40;9.30;;;;;;;19.38;73.97;97502.66;1715900;83;21449;-78
2021/07/13 00:07:44;;;;;;;12.50;10.13;;;;;;;19.35;73.84;97505.59;1679957;84;21083;-78
2021/07/13 00:10:15;;;;;;;11.03;9.85;;;;;;;19.32;73.92;97514.73;1685525;84;21004;-78
2021/07/13 00:12:41;;;;;;;11.78;9.93;;;;;;;19.28;73.90;97509.20;1720831;83;20990;-78
2021/07/13 00:15:16;;;;;;;14.15;9.95;;;;;;;19.17;74.13;97508.64;1691564;84;21093;-78
2021/07/13 00:17:44;;;;;;;14.40;10.08;;;;;;;19.10;74.33;97510.91;1691725;85;21473;-78
2021/07/13 00:20:12;;;;;;;13.00;9.63;;;;;;;19.05;74.55;97514.41;1705067;84;21028;-78
2021/07/13 00:22:40;;;;;;;12.50;10.25;;;;;;;19.02;74.86;97509.72;1704729;84;20987;-78
2021/07/13 00:25:08;;;;;;;12.95;9.85;;;;;;;18.95;74.96;97511.98;1705044;84;21021;-78
2021/07/13 00:27:34;;;;;;;12.33;10.23;;;;;;;18.93;75.01;97513.44;1705074;84;21005;-77
2021/07/13 00:30:01;;;;;;;14.28;10.08;;;;;;;18.91;75.07;97511.83;1704771;84;21051;-77
2021/07/13 00:32:27;;;;;;;12.20;10.18;;;;;;;18.85;75.26;97517.17;1699651;84;20980;-78
2021/07/13 00:34:54;;;;;;;12.45;10.58;;;;;;;18.81;76.97;97515.67;1698514;84;20988;-79
2021/07/13 00:37:20;;;;;;;11.33;9.40;;;;;;;18.77;75.77;97519.03;1686715;85;21077;-78
2021/07/13 00:39:47;;;;;;;13.72;9.83;;;;;;;18.72;75.88;97519.84;1665698;86;21482;-79
2021/07/13 00:42:17;;;;;;;12.30;9.30;;;;;;;18.74;75.60;97523.30;1707114;83;21010;-79
2021/07/13 00:44:45;;;;;;;9.75;8.75;;;;;;;18.72;76.09;97526.55;1707578;83;20993;-79
2021/07/13 00:47:13;;;;;;;13.45;9.75;;;;;;;18.74;76.48;97528.16;1707399;83;20990;-79
2021/07/13 00:49:44;;;;;;;10.72;9.10;;;;;;;18.74;76.42;97519.27;1739766;82;20981;-78
2021/07/13 00:52:08;;;;;;;10.28;8.53;;;;;;;18.76;76.37;97515.14;1742595;82;21446;-79
2021/07/13 00:54:36;;;;;;;9.98;8.98;;;;;;;18.75;77.03;97519.64;1743020;82;20958;-78
2021/07/13 00:57:08;;;;;;;10.08;8.95;;;;;;;18.78;76.77;97511.84;1728501;82;21069;-78
2021/07/13 00:59:40;;;;;;;12.75;9.15;;;;;;;18.79;76.68;97505.03;1730320;82;20969;-78
2021/07/13 01:02:12;;;;;;;11.63;8.35;;;;;;;18.77;76.94;97515.01;1718098;82;20981;-78
2021/07/13 01:04:42;;;;;;;13.05;8.15;;;;;;;18.76;77.26;97505.24;1713348;83;21061;-78
2021/07/13 01:07:49;;;;;;;9.18;8.08;;;;;;;18.76;77.15;97507.92;1712400;84;21431;-78
2021/07/13 01:10:24;;;;;;;12.07;8.83;;;;;;;18.80;77.12;97505.88;1713421;84;21550;-78
2021/07/13 01:13:05;;;;;;;11.38;9.10;;;;;;;18.84;78.30;97507.38;1713578;84;21053;-79
2021/07/13 01:15:37;;;;;;;10.45;8.90;;;;;;;18.85;77.34;97508.62;1713496;82;21067;-78
2021/07/13 01:18:14;;;;;;;11.90;10.25;;;;;;;18.82;76.90;97511.54;1713676;84;21021;-78
2021/07/13 01:21:16;;;;;;;11.10;8.73;;;;;;;18.81;76.81;97514.33;1709149;84;21056;-78
2021/07/13 01:24:09;;;;;;;10.00;8.98;;;;;;;18.78;77.12;97506.48;1724705;82;20966;-79
2021/07/13 01:27:17;;;;;;;15.30;9.18;;;;;;;18.76;76.92;97507.09;1718814;82;21009;-78
2021/07/13 01:29:46;;;;;;;12.15;9.20;;;;;;;18.70;77.19;97507.90;1713753;83;21013;-78
2021/07/13 01:32:20;;;;;;;12.88;9.85;;;;;;;18.58;77.42;97505.59;1715169;82;21008;-79
2021/07/13 01:34:54;;;;;;;11.30;10.10;;;;;;;18.42;77.81;97507.15;1733470;82;21400;-78
2021/07/13 01:37:22;;;;;;;9.68;8.75;;;;;;;18.30;77.38;97512.01;1717146;82;20993;-77
2021/07/13 01:39:52;;;;;;;10.40;9.15;;;;;;;18.18;77.92;97510.56;1721694;82;21018;-77
2021/07/13 01:42:20;;;;;;;11.40;9.18;;;;;;;18.11;77.40;97510.62;1715947;84;21483;-77
2021/07/13 01:44:50;;;;;;;11.97;9.40;;;;;;;18.05;77.52;97513.19;1726200;82;21106;-77
2021/07/13 01:47:20;;;;;;;11.93;9.65;;;;;;;17.94;79.55;97516.59;1737021;82;20985;-77
2021/07/13 01:49:48;;;;;;;11.05;9.25;;;;;;;17.83;79.53;97514.26;1662068;85;21013;-77
2021/07/13 01:52:16;;;;;;;12.33;9.10;;;;;;;17.73;78.72;97505.48;1713429;83;21024;-78
2021/07/13 01:54:44;;;;;;;11.30;9.20;;;;;;;17.69;78.50;97512.05;1713590;84;20995;-78
2021/07/13 01:57:11;;;;;;;10.78;8.88;;;;;;;17.70;78.35;97514.22;1729082;82;21029;-77
2021/07/13 01:59:41;;;;;;;14.53;9.80;;;;;;;17.71;78.29;97515.94;1715195;82;21420;-78
2021/07/13 02:02:10;;;;;;;11.97;9.93;;;;;;;17.72;78.00;97513.66;1718751;82;21408;-77
2021/07/13 02:04:39;;;;;;;13.70;10.10;;;;;;;17.70;78.17;97503.03;1669853;85;21375;-78
2021/07/13 02:07:10;;;;;;;11.60;9.88;;;;;;;17.66;78.26;97502.36;1680908;84;21015;-78
2021/07/13 02:09:39;;;;;;;13.88;9.90;;;;;;;17.65;78.56;97505.16;1735808;83;20993;-78
2021/07/13 02:12:08;;;;;;;12.33;9.63;;;;;;;17.66;78.37;97502.86;1735746;83;21033;-78
2021/07/13 02:14:35;;;;;;;11.60;10.38;;;;;;;17.65;78.49;97501.98;1725928;82;21377;-78
2021/07/13 02:17:04;;;;;;;13.75;10.72;;;;;;;17.64;80.43;97500.73;1713630;84;21085;-78
2021/07/13 02:19:30;;;;;;;13.32;10.45;;;;;;;17.62;79.24;97504.02;1713819;84;21031;-79
2021/07/13 02:21:57;;;;;;;12.10;10.82;;;;;;;17.62;78.99;97511.59;1713704;84;21015;-79
2021/07/13 02:24:24;;;;;;;12.28;10.78;;;;;;;17.62;79.32;97513.39;1738821;82;21359;-79
2021/07/13 02:27:07;;;;;;;12.33;10.35;;;;;;;17.64;80.29;97507.44;1696387;84;21001;-79
2021/07/13 02:29:42;;;;;;;14.58;9.65;;;;;;;17.66;80.39;97514.41;1713732;83;20974;-80
2021/07/13 02:32:14;;;;;;;10.50;9.40;;;;;;;17.68;80.29;97507.15;1720679;82;21011;-79
2021/07/13 02:34:43;;;;;;;10.90;9.65;;;;;;;17.72;80.04;97509.14;1713219;84;21511;-80
2021/07/13 02:37:13;;;;;;;11.95;10.18;;;;;;;17.68;80.75;97504.47;1713559;84;21039;-80
2021/07/13 02:39:42;;;;;;;10.28;9.20;;;;;;;17.70;80.40;97503.50;1713744;82;21019;-80
2021/07/13 02:42:09;;;;;;;12.75;9.93;;;;;;;17.72;80.02;97505.62;1725669;83;21061;-79
2021/07/13 02:44:37;;;;;;;11.40;9.38;;;;;;;17.77;80.08;97510.19;1709160;83;21044;-79
2021/07/13 02:47:10;;;;;;;15.68;9.68;;;;;;;17.79;80.30;97513.61;1726708;82;20981;-80
2021/07/13 02:49:46;;;;;;;14.00;10.43;;;;;;;17.78;80.30;97508.72;1726708;83;21013;-78
2021/07/13 02:52:21;;;;;;;11.00;9.90;;;;;;;17.73;80.83;97513.53;1747407;82;21004;-77
2021/07/13 02:54:54;;;;;;;16.57;10.28;;;;;;;17.73;80.37;97512.19;1754729;82;21025;-77
2021/07/13 02:57:23;;;;;;;15.60;10.05;;;;;;;17.71;80.61;97524.84;1748466;82;20992;-78
2021/07/13 02:59:53;;;;;;;14.53;10.80;;;;;;;17.67;80.24;97528.69;1727103;82;21411;-77
2021/07/13 03:02:21;;;;;;;11.20;10.10;;;;;;;17.63;79.49;97530.72;1692220;85;21042;-77
2021/07/13 03:04:50;;;;;;;12.40;10.53;;;;;;;17.63;79.62;97523.14;1692182;84;21009;-77
2021/07/13 03:07:19;;;;;;;15.30;11.53;;;;;;;17.63;79.34;97524.48;1692280;84;21445;-77
2021/07/13 03:09:47;;;;;;;14.03;10.43;;;;;;;17.58;79.15;97525.27;1692377;83;20998;-77
2021/07/13 03:12:15;;;;;;;12.53;10.65;;;;;;;17.55;79.40;97529.88;1676898;86;21013;-77
2021/07/13 03:14:43;;;;;;;12.35;10.70;;;;;;;17.53;79.29;97522.41;1692775;83;21056;-77
2021/07/13 03:17:15;;;;;;;15.88;11.55;;;;;;;17.49;79.54;97522.73;1706644;83;21013;-77
2021/07/13 03:19:41;;;;;;;12.98;10.43;;;;;;;17.44;79.56;97528.37;1659072;85;21003;-78
2021/07/13 03:22:24;;;;;;;12.55;11.25;;;;;;;17.44;79.63;97525.69;1705147;84;21079;-78
2021/07/13 03:24:52;;;;;;;12.35;11.05;;;;;;;17.41;79.72;97522.73;1705208;84;21062;-78
2021/07/13 03:27:21;;;;;;;12.58;11.20;;;;;;;17.41;80.10;97525.41;1705125;84;21020;-78
2021/07/13 03:29:51;;;;;;;15.65;10.90;;;;;;;17.38;80.07;97532.33;1720964;83;20993;-77
2021/07/13 03:32:19;;;;;;;12.78;11.05;;;;;;;17.40;80.41;97526.88;1695589;83;20994;-78
2021/07/13 03:34:47;;;;;;;12.88;10.88;;;;;;;17.43;80.20;97527.99;1676038;85;21056;-78
2021/07/13 03:37:15;;;;;;;14.50;11.70;;;;;;;17.46;80.12;97530.48;1692041;84;21072;-78
2021/07/13 03:39:44;;;;;;;13.58;10.78;;;;;;;17.48;80.51;97529.89;1692828;83;21395;-78
2021/07/13 03:42:11;;;;;;;14.65;11.28;;;;;;;17.50;79.84;97522.63;1698473;83;21053;-78
2021/07/13 03:44:40;;;;;;;12.20;10.70;;;;;;;17.53;79.75;97517.55;1707380;84;21013;-78
2021/07/13 03:47:15;;;;;;;18.57;11.63;;;;;;;17.54;80.70;97513.44;1727612;82;21033;-78
2021/07/13 03:49:47;;;;;;;15.08;11.60;;;;;;;17.58;79.75;97515.89;1730744;83;21387;-78
2021/07/13 03:52:14;;;;;;;15.13;11.53;;;;;;;17.61;80.14;97517.88;1735590;83;21005;-79
2021/07/13 03:54:41;;;;;;;12.73;11.18;;;;;;;17.63;80.08;97517.78;1735586;83;21418;-78
2021/07/13 03:57:08;;;;;;;12.75;10.63;;;;;;;17.69;80.88;97520.08;1735672;83;21009;-78
2021/07/13 03:59:35;;;;;;;17.50;11.08;;;;;;;17.76;79.90;97519.16;1735600;82;20993;-78
2021/07/13 04:02:02;;;;;;;14.25;10.75;;;;;;;17.80;80.17;97520.22;1735646;82;21025;-78
2021/07/13 04:04:29;;;;;;;13.72;9.90;;;;;;;17.86;80.52;97525.63;1742390;82;21402;-78
2021/07/13 04:06:55;;;;;;;12.73;9.95;;;;;;;17.97;80.17;97527.59;1734425;82;21021;-78
2021/07/13 04:09:22;;;;;;;11.70;9.28;;;;;;;18.07;80.17;97526.53;1737943;82;20981;-78
2021/07/13 04:11:48;;;;;;;16.48;9.18;;;;;;;18.16;79.75;97523.23;1742929;82;21446;-78
2021/07/13 04:14:15;;;;;;;14.30;9.38;;;;;;;18.24;79.54;97524.51;1742920;82;20969;-79
2021/07/13 04:16:42;;;;;;;11.68;9.25;;;;;;;18.33;79.19;97526.56;1686648;84;21499;-79
2021/07/13 04:19:08;;;;;;;10.23;9.13;;;;;;;18.41;78.59;97515.30;1706620;84;21014;-78
2021/07/13 04:21:35;;;;;;;10.93;9.55;;;;;;;18.49;78.67;97514.29;1670515;84;20994;-78
2021/07/13 04:24:01;;;;;;;12.05;10.25;;;;;;;18.59;78.46;97514.48;1691204;85;21049;-78
2021/07/13 04:26:30;;;;;;;11.93;9.90;;;;;;;18.64;77.82;97506.97;1735538;83;21045;-78
2021/07/13 04:28:56;;;;;;;12.15;9.95;;;;;;;18.69;77.44;97504.81;1722886;83;21049;-79
2021/07/13 04:31:23;;;;;;;12.95;10.03;;;;;;;18.74;77.19;97507.19;1722353;82;21045;-80
2021/07/13 04:33:49;;;;;;;12.13;9.78;;;;;;;18.80;76.83;97500.50;1713455;84;21415;-79
2021/07/13 04:36:16;;;;;;;13.03;10.08;;;;;;;18.85;76.65;97500.56;1715818;83;21092;-79
2021/07/13 04:38:42;;;;;;;11.22;9.43;;;;;;;18.91;76.35;97501.96;1713795;82;21092;-79
2021/07/13 04:41:09;;;;;;;12.90;10.20;;;;;;;18.94;75.94;97503.06;1715221;83;21057;-79
2021/07/13 04:43:36;;;;;;;14.53;9.85;;;;;;;18.95;75.35;97506.62;1721182;83;21438;-80
2021/07/13 04:46:02;;;;;;;11.22;10.03;;;;;;;18.94;75.42;97505.75;1720953;82;21054;-80
2021/07/13 04:48:29;;;;;;;13.22;10.05;;;;;;;18.99;75.31;97509.45;1721342;82;21019;-80
2021/07/13 04:50:55;;;;;;;18.50;10.85;;;;;;;19.03;75.12;97508.75;1721182;83;21081;-77
2021/07/13 04:53:22;;;;;;;13.13;10.90;;;;;;;19.06;74.82;97509.41;1721188;83;21025;-77
2021/07/13 04:55:48;;;;;;;13.05;10.80;;;;;;;19.07;74.38;97508.94;1729863;82;21443;-78
2021/07/13 04:58:14;;;;;;;18.70;11.43;;;;;;;19.07;74.22;97515.18;1689115;83;21057;-77
2021/07/13 05:00:41;;;;;;;14.45;10.60;;;;;;;19.10;74.21;97514.09;1743264;82;21032;-77
2021/07/13 05:03:07;;;;;;;12.95;10.75;;;;;;;19.14;74.16;97519.59;1750901;82;20982;-77
2021/07/13 05:05:34;;;;;;;11.78;10.63;;;;;;;19.18;74.09;97525.63;1750951;82;20985;-77
2021/07/13 05:08:00;;;;;;;13.40;10.90;;;;;;;19.22;73.96;97521.75;1750938;82;21025;-77
2021/07/13 05:10:26;;;;;;;18.27;12.10;;;;;;;19.26;74.02;97526.77;1750240;82;20973;-77
2021/07/13 05:12:53;;;;;;;15.38;12.95;;;;;;;19.33;73.89;97528.53;1715158;83;21431;-77
2021/07/13 05:15:19;;;;;;;18.55;12.25;;;;;;;19.37;74.00;97530.03;1747851;82;20985;-78
2021/07/13 05:17:45;;;;;;;17.75;13.30;;;;;;;19.46;73.73;97528.95;1721520;82;21029;-77
2021/07/13 05:20:14;;;;;;;16.12;12.20;;;;;;;19.51;73.64;97531.69;1722576;82;20972;-77
2021/07/13 05:22:43;;;;;;;14.35;11.60;;;;;;;19.57;73.96;97529.05;1686511;85;21421;-77
2021/07/13 05:25:12;;;;;;;13.88;12.30;;;;;;;19.64;73.62;97531.63;1738705;82;21343;-77
2021/07/13 05:27:41;;;;;;;14.73;12.28;;;;;;;19.71;73.51;97536.06;1739823;82;20989;-77
2021/07/13 05:30:11;;;;;;;15.88;12.13;;;;;;;19.79;73.52;97536.36;1721031;83;21387;-77
2021/07/13 05:32:37;;;;;;;16.35;13.38;;;;;;;19.87;73.29;97541.16;1721131;83;20958;-77
2021/07/13 05:35:06;;;;;;;19.98;13.55;;;;;;;19.97;73.34;97533.27;1721281;83;21458;-77
2021/07/13 05:37:33;;;;;;;15.05;13.13;;;;;;;20.02;73.27;97536.47;1750698;82;21056;-77
2021/07/13 05:40:02;;;;;;;20.48;13.58;;;;;;;20.09;73.08;97537.38;1750944;82;20997;-77
2021/07/13 05:42:30;;;;;;;17.87;13.58;;;;;;;20.18;73.39;97535.33;1749970;82;21510;-76
2021/07/13 05:44:57;;;;;;;18.23;13.10;;;;;;;20.27;73.13;97535.09;1713242;84;21423;-77
2021/07/13 05:47:23;;;;;;;26.25;17.25;;;;;;;20.34;73.20;97529.59;1726570;82;21001;-77
2021/07/13 05:49:49;;;;;;;24.10;17.00;;;;;;;20.44;73.25;97525.21;1738444;82;20965;-77
2021/07/13 05:52:16;;;;;;;26.73;18.45;;;;;;;20.53;73.44;97533.55;1725965;82;21032;-77
2021/07/13 05:54:42;;;;;;;27.93;18.17;;;;;;;20.63;73.31;97529.67;1721139;83;21051;-77
2021/07/13 05:57:09;;;;;;;25.45;15.10;;;;;;;20.73;73.05;97532.00;1738304;82;21402;-79
2021/07/13 05:59:35;;;;;;;26.73;14.70;;;;;;;20.84;72.97;97529.78;1662696;85;21029;-79
2021/07/13 06:02:02;;;;;;;19.17;13.72;;;;;;;20.93;72.84;97531.78;1736273;82;21037;-78
2021/07/13 06:04:29;;;;;;;23.27;13.85;;;;;;;21.02;72.77;97526.16;1689154;85;21438;-78
2021/07/13 06:06:55;;;;;;;26.05;15.30;;;;;;;21.13;72.44;97525.79;1736256;82;21001;-78
2021/07/13 06:09:22;;;;;;;19.98;14.90;;;;;;;21.20;72.27;97529.20;1689247;85;21424;-78
2021/07/13 06:11:48;;;;;;;20.52;14.00;;;;;;;21.30;71.66;97523.08;1747821;82;20998;-78
2021/07/13 06:14:15;;;;;;;22.93;14.23;;;;;;;21.42;71.55;97530.65;1750919;82;21009;-78
2021/07/13 06:16:41;;;;;;;22.17;13.50;;;;;;;21.53;71.62;97535.14;1670383;85;21517;-78
2021/07/13 06:19:07;;;;;;;21.23;12.63;;;;;;;21.65;71.16;97530.58;1721002;83;21010;-76
2021/07/13 06:21:34;;;;;;;26.00;16.15;;;;;;;21.75;71.53;97528.86;1721225;83;20990;-76
2021/07/13 06:24:00;;;;;;;19.07;14.50;;;;;;;21.86;71.17;97529.31;1721074;83;21018;-77
2021/07/13 06:26:27;;;;;;;18.37;12.95;;;;;;;21.96;70.54;97535.65;1721029;83;21467;-77
2021/07/13 06:28:53;;;;;;;20.02;13.55;;;;;;;22.06;71.01;97534.88;1721131;83;21015;-78
2021/07/13 06:31:19;;;;;;;15.45;12.63;;;;;;;22.17;71.09;97538.02;1721873;82;21001;-77
2021/07/13 06:33:46;;;;;;;21.00;12.90;;;;;;;22.28;70.60;97535.26;1728804;82;21451;-76
2021/07/13 06:36:12;;;;;;;15.58;12.10;;;;;;;22.37;69.70;97533.61;1732166;82;21023;-76
2021/07/13 06:38:39;;;;;;;18.35;14.07;;;;;;;22.41;69.05;97527.83;1739349;82;20977;-78
2021/07/13 06:41:05;;;;;;;18.37;13.65;;;;;;;22.52;69.51;97528.26;1749121;82;21040;-81
2021/07/13 06:43:32;;;;;;;19.00;13.05;;;;;;;22.60;68.90;97533.50;1718804;83;21478;-83
2021/07/13 06:46:00;;;;;;;18.32;12.05;;;;;;;22.67;68.98;97523.89;1716209;82;21093;-83
2021/07/13 06:48:27;;;;;;;15.48;12.45;;;;;;;22.75;68.71;97525.92;1706282;83;21015;-83
2021/07/13 06:50:54;;;;;;;16.77;12.50;;;;;;;22.83;68.21;97522.03;1699491;82;21025;-83
2021/07/13 06:53:21;;;;;;;13.65;12.15;;;;;;;22.90;68.05;97513.77;1707936;82;21040;-84
2021/07/13 06:55:48;;;;;;;18.70;13.68;;;;;;;22.98;67.91;97516.27;1709485;83;21064;-83
2021/07/13 06:58:15;;;;;;;18.48;12.93;;;;;;;23.05;67.59;97516.09;1671646;85;20990;-81
2021/07/13 07:00:42;;;;;;;20.15;12.03;;;;;;;23.11;67.46;97519.59;1647759;85;21061;-84
2021/07/13 07:03:08;;;;;;;18.98;13.25;;;;;;;23.18;67.30;97512.64;1684237;85;21021;-81
2021/07/13 07:05:35;;;;;;;20.55;13.65;;;;;;;23.25;67.00;97515.65;1705656;83;20987;-79
2021/07/13 07:08:03;;;;;;;19.95;12.73;;;;;;;23.32;66.85;97511.45;1715993;83;20970;-79
2021/07/13 07:10:30;;;;;;;22.95;13.00;;;;;;;23.41;66.80;97518.38;1702392;83;20950;-79
2021/07/13 07:12:56;;;;;;;18.48;13.08;;;;;;;23.49;66.47;97513.63;1694718;85;21044;-80
2021/07/13 07:15:23;;;;;;;19.48;12.73;;;;;;;23.55;66.22;97519.30;1694964;83;21048;-80
2021/07/13 07:17:53;;;;;;;20.05;13.98;;;;;;;23.62;66.43;97524.18;1716173;83;20938;-80
2021/07/13 07:20:24;;;;;;;20.60;12.40;;;;;;;23.68;66.05;97520.42;1718858;83;21025;-81
2021/07/13 07:22:50;;;;;;;19.77;12.40;;;;;;;23.75;65.88;97519.33;1718004;83;20989;-81
2021/07/13 07:25:17;;;;;;;18.52;13.38;;;;;;;23.82;65.78;97512.38;1688371;83;21058;-80
2021/07/13 07:27:45;;;;;;;19.95;11.20;;;;;;;23.91;65.70;97516.07;1718952;83;21005;-79
2021/07/13 07:30:16;;;;;;;17.48;11.95;;;;;;;23.99;65.45;97512.16;1718743;83;21485;-80
2021/07/13 07:32:45;;;;;;;15.13;11.88;;;;;;;24.09;65.11;97510.83;1718943;83;20993;-80
2021/07/13 07:35:12;;;;;;;16.25;12.30;;;;;;;24.19;65.14;97522.14;1718828;83;21510;-80
2021/07/13 07:37:40;;;;;;;16.82;12.40;;;;;;;24.28;65.05;97517.22;1715439;83;21403;-80
2021/07/13 07:40:10;;;;;;;16.17;11.97;;;;;;;24.36;64.64;97513.30;1690232;83;21469;-82
2021/07/13 07:42:38;;;;;;;16.97;11.65;;;;;;;24.47;64.44;97516.84;1673548;85;21019;-79
2021/07/13 07:45:07;;;;;;;15.70;11.55;;;;;;;24.54;64.32;97517.98;1654658;87;21043;-80
2021/07/13 07:47:33;;;;;;;15.80;11.97;;;;;;;24.63;64.36;97516.24;1699875;84;21018;-80
2021/07/13 07:50:00;;;;;;;12.63;11.33;;;;;;;24.72;63.92;97508.59;1740917;82;21005;-80
2021/07/13 07:52:26;;;;;;;19.32;11.83;;;;;;;24.76;63.98;97505.08;1731300;82;20973;-80
2021/07/13 07:54:53;;;;;;;13.00;11.35;;;;;;;24.85;63.98;97502.88;1732340;82;21014;-80
2021/07/13 07:57:19;;;;;;;15.30;11.28;;;;;;;24.94;63.88;97500.28;1719043;82;21017;-80
2021/07/13 07:59:46;;;;;;;19.05;13.38;;;;;;;24.99;63.77;97492.55;1736738;82;21550;-82
2021/07/13 08:02:14;;;;;;;14.53;11.88;;;;;;;25.13;63.67;97501.55;1727235;82;21022;-83
2021/07/13 08:04:41;;;;;;;16.42;12.25;;;;;;;25.21;63.53;97498.57;1722843;82;21040;-84
2021/07/13 08:07:11;;;;;;;14.87;12.58;;;;;;;25.28;63.29;97503.23;1725027;82;21009;-84
2021/07/13 08:09:38;;;;;;;14.10;12.65;;;;;;;25.36;63.15;97507.06;1722905;82;21430;-82
2021/07/13 08:12:05;;;;;;;19.62;13.93;;;;;;;25.52;62.32;97507.23;1724597;82;20997;-83
2021/07/13 08:14:34;;;;;;;16.55;12.68;;;;;;;25.52;62.32;97507.23;1725451;82;21077;-83
2021/07/13 08:17:00;;;;;;;13.25;11.75;;;;;;;25.60;62.09;97505.63;1721818;82;21022;-83
2021/07/13 08:19:48;;;;;;;13.55;11.73;;;;;;;25.67;62.04;97494.53;1720081;82;20982;-86
2021/07/13 08:22:03;;;;;;;14.28;11.93;;;;;;;25.75;62.33;97500.05;1713596;82;21035;-83
2021/07/13 08:24:35;;;;;;;16.07;12.63;;;;;;;25.86;62.32;97504.38;1704374;83;21010;-85
2021/07/13 08:27:04;;;;;;;13.70;11.83;;;;;;;25.95;61.73;97498.02;1716267;82;20961;-80
2021/07/13 08:29:32;;;;;;;14.10;12.40;;;;;;;26.01;61.05;97492.48;1714961;84;21048;-81
2021/07/13 08:31:59;;;;;;;15.50;12.47;;;;;;;26.07;61.13;97495.92;1715736;84;21029;-79
2021/07/13 08:34:27;;;;;;;13.20;11.70;;;;;;;26.12;60.67;97494.11;1715002;84;21005;-82
2021/07/13 08:36:54;;;;;;;15.20;11.78;;;;;;;26.17;59.99;97489.05;1715233;84;21470;-81
2021/07/13 08:39:21;;;;;;;13.65;11.48;;;;;;;26.20;60.04;97491.44;1714878;84;21017;-83
2021/07/13 08:41:48;;;;;;;14.05;10.85;;;;;;;26.26;60.06;97494.56;1722993;82;20989;-83
2021/07/13 08:44:16;;;;;;;12.78;11.57;;;;;;;26.33;59.84;97491.05;1721894;82;20981;-81
2021/07/13 08:46:44;;;;;;;11.43;10.23;;;;;;;26.41;59.98;97488.06;1706731;82;21444;-80
2021/07/13 08:49:13;;;;;;;12.23;11.00;;;;;;;26.51;59.42;97486.09;1713029;82;21589;-78
2021/07/13 08:51:42;;;;;;;12.15;10.85;;;;;;;26.62;59.11;97479.02;1722474;82;20997;-80
2021/07/13 08:54:09;;;;;;;10.82;9.73;;;;;;;26.70;59.23;97474.14;1721576;82;20993;-78
2021/07/13 08:56:38;;;;;;;11.38;9.80;;;;;;;26.80;59.00;97473.17;1725362;82;21020;-81
2021/07/13 08:59:06;;;;;;;10.90;9.90;;;;;;;26.87;58.54;97468.28;1728059;82;21538;-79
2021/07/13 09:01:33;;;;;;;11.63;10.40;;;;;;;26.99;58.38;97471.59;1724592;82;21411;-81
2021/07/13 09:04:05;;;;;;;10.95;9.85;;;;;;;27.08;57.71;97470.28;1726467;82;21423;-81
2021/07/13 09:06:58;;;;;;;12.20;10.60;;;;;;;27.17;56.90;97477.46;1722936;82;20993;-81
2021/07/13 09:09:32;;;;;;;10.43;9.43;;;;;;;27.26;56.91;97475.11;1725962;82;21397;-82
2021/07/13 09:12:22;;;;;;;10.65;9.40;;;;;;;27.36;56.04;97474.95;1741025;82;21395;-81
2021/07/13 09:15:02;;;;;;;10.93;9.60;;;;;;;27.47;55.50;97476.53;1721003;82;20970;-82
2021/07/13 09:17:42;;;;;;;11.93;9.28;;;;;;;27.59;55.89;97478.42;1721981;82;21005;-82
2021/07/13 09:20:24;;;;;;;18.15;9.43;;;;;;;27.67;54.76;97476.26;1723565;82;21005;-82
2021/07/13 09:22:56;;;;;;;9.53;8.58;;;;;;;27.72;53.76;97471.66;1725329;82;21056;-85
2021/07/13 09:25:34;;;;;;;10.98;9.35;;;;;;;27.78;53.61;97473.20;1718520;82;20962;-86
2021/07/13 09:28:14;;;;;;;13.35;9.53;;;;;;;27.83;53.50;97465.91;1721052;82;20980;-85
2021/07/13 09:30:49;;;;;;;9.85;8.85;;;;;;;27.90;53.53;97468.81;1715154;82;21037;-82
2021/07/13 09:33:30;;;;;;;12.43;9.33;;;;;;;27.97;52.50;97467.09;1722808;82;21108;-82
2021/07/13 09:36:11;;;;;;;18.42;9.63;;;;;;;28.06;51.57;97466.58;1705127;84;21101;-83
2021/07/13 09:38:43;;;;;;;9.60;8.48;;;;;;;28.14;52.38;97468.48;1705178;84;21026;-82
2021/07/13 09:41:17;;;;;;;12.18;8.88;;;;;;;28.28;52.83;97462.87;1701449;84;21085;-83
2021/07/13 09:43:55;;;;;;;10.53;8.58;;;;;;;28.39;51.66;97465.23;1710321;84;21060;-82
2021/07/13 09:46:25;;;;;;;9.83;8.88;;;;;;;28.48;51.25;97467.42;1731211;82;21036;-82
2021/07/13 09:49:12;;;;;;;9.65;8.65;;;;;;;28.58;50.88;97455.84;1730424;82;21038;-78
2021/07/13 09:52:03;;;;;;;13.08;8.50;;;;;;;28.66;49.46;97459.56;1747652;82;22133;-80
2021/07/13 09:54:44;;;;;;;10.78;8.95;;;;;;;28.71;49.64;97458.02;1731737;81;20993;-80
2021/07/13 09:57:20;;;;;;;9.65;8.75;;;;;;;28.84;49.40;97457.96;1738297;82;21075;-80
2021/07/13 09:59:52;;;;;;;13.20;9.45;;;;;;;28.91;48.38;97458.15;1731815;82;21033;-83
2021/07/13 10:02:23;;;;;;;9.80;8.60;;;;;;;29.01;48.21;97462.87;1728683;82;21402;-82
2021/07/13 10:04:50;;;;;;;11.25;8.43;;;;;;;29.07;47.79;97464.06;1730420;82;20989;-83
2021/07/13 10:07:20;;;;;;;12.18;9.00;;;;;;;29.18;47.29;97465.02;1731220;82;20997;-82
2021/07/13 10:09:51;;;;;;;11.55;8.65;;;;;;;29.29;47.69;97456.95;1735073;82;21024;-80
2021/07/13 10:12:26;;;;;;;14.93;8.35;;;;;;;29.44;47.04;97458.93;1730959;82;21486;-78
2021/07/13 10:14:56;;;;;;;10.00;8.60;;;;;;;29.58;46.88;97451.87;1732777;82;21030;-82
2021/07/13 10:17:30;;;;;;;10.05;8.60;;;;;;;29.70;46.02;97458.62;1691663;83;21033;-80
2021/07/13 10:20:02;;;;;;;10.40;8.00;;;;;;;29.80;45.64;97459.73;1682187;84;21041;-79
2021/07/13 10:22:31;;;;;;;10.63;8.30;;;;;;;29.90;45.68;97458.97;1684058;84;21080;-81
2021/07/13 10:25:00;;;;;;;9.85;8.73;;;;;;;30.02;44.78;97451.20;1682215;84;21506;-83
2021/07/13 10:27:43;;;;;;;8.83;7.75;;;;;;;30.13;44.82;97459.52;1686864;84;21120;-83
2021/07/13 10:30:24;;;;;;;9.23;8.33;;;;;;;30.27;43.32;97453.73;1680895;84;20994;-88
2021/07/13 10:32:50;;;;;;;12.00;8.50;;;;;;;30.37;42.50;97445.29;1676992;85;21116;-83
2021/07/13 10:35:31;;;;;;;10.82;7.80;;;;;;;30.54;42.92;97448.70;1686288;84;21022;-83
2021/07/13 10:38:21;;;;;;;14.00;7.92;;;;;;;30.72;41.67;97445.31;1682109;84;21037;-84
2021/07/13 10:40:46;;;;;;;11.63;10.00;;;;;;;30.85;42.25;97442.77;1683757;84;21040;-83
2021/07/13 10:43:22;;;;;;;11.15;10.15;;;;;;;31.01;41.45;97440.33;1678352;84;21513;-81
2021/07/13 10:46:10;;;;;;;8.83;7.85;;;;;;;31.18;41.21;97440.95;1678441;85;21056;-85
2021/07/13 10:48:40;;;;;;;9.15;8.15;;;;;;;31.41;40.90;97439.14;1706018;83;21071;-84
2021/07/13 10:51:09;;;;;;;9.50;8.58;;;;;;;32.02;39.15;97435.68;1704628;83;21035;-81
2021/07/13 10:53:39;;;;;;;8.98;8.28;;;;;;;32.98;38.02;97428.81;1702052;83;21372;-81
2021/07/13 10:56:17;;;;;;;10.43;8.73;;;;;;;33.75;36.88;97430.54;1718009;83;21316;-82
2021/07/13 10:58:50;;;;;;;10.60;8.13;;;;;;;33.75;36.67;97431.09;1714265;83;20989;-76
2021/07/13 11:01:29;;;;;;;10.50;8.43;;;;;;;34.75;36.88;97433.00;1718505;83;21453;-77
2021/07/13 11:04:05;;;;;;;9.53;7.85;;;;;;;35.67;33.97;97425.66;1718310;83;21044;-77
2021/07/13 11:06:45;;;;;;;9.43;7.97;;;;;;;36.29;34.17;97420.02;1718465;83;21422;-78
2021/07/13 11:09:26;;;;;;;8.78;7.55;;;;;;;37.01;29.62;97425.25;1708065;82;21470;-79
2021/07/13 11:12:04;;;;;;;9.08;7.87;;;;;;;37.63;31.13;97429.30;1714685;83;21023;-80
2021/07/13 11:14:33;;;;;;;8.93;7.05;;;;;;;38.30;30.75;97426.56;1707474;83;21080;-80
2021/07/13 11:17:00;;;;;;;8.98;7.92;;;;;;;38.79;28.75;97429.65;1709176;83;21009;-80
2021/07/13 11:19:32;;;;;;;8.13;7.40;;;;;;;39.03;28.69;97426.88;1713405;83;21020;-81
2021/07/13 11:22:00;;;;;;;8.38;7.17;;;;;;;39.37;27.23;97420.61;1702322;83;21390;-79
2021/07/13 11:24:27;;;;;;;13.22;7.95;;;;;;;39.55;26.57;97416.86;1668511;85;21060;-79
2021/07/13 11:26:58;;;;;;;15.32;8.65;;;;;;;39.42;26.91;97420.71;1720474;83;21461;-80
2021/07/13 11:29:29;;;;;;;9.03;8.10;;;;;;;39.52;26.40;97419.55;1720294;83;21017;-80
2021/07/13 11:32:03;;;;;;;15.58;7.97;;;;;;;39.98;25.73;97418.75;1717804;83;20957;-80
2021/07/13 11:34:36;;;;;;;8.60;7.78;;;;;;;40.23;25.14;97409.98;1694300;85;21088;-80